sensor_id;sensor_type;location;lat;lon;timestamp;P1;durP1;ratioP1;P2;durP2;ratioP2
16480;SDS011;44634;54.110;12.138;2023-04-24T00:00:35;5.60;;;5.03;;
16480;SDS011;44634;54.110;12.138;2023-04-24T00:03:04;4.87;;;4.47;;
16480;SDS011;44634;54.110;12.138;2023-04-24T00:05:32;4.73;;;4.43;;
16480;SDS011;44634;54.110;12.138;2023-04-24T00:08:00;4.90;;;4.40;;
16480;SDS011;44634;54.110;12.138;2023-04-24T00:10:28;4.97;;;4.60;;
16480;SDS011;44634;54.110;12.138;2023-04-24T00:12:55;4.53;;;4.17;;
16480;SDS011;44634;54.110;12.138;2023-04-24T00:15:24;5.10;;;4.70;;
16480;SDS011;44634;54.110;12.138;2023-04-24T00:17:52;4.70;;;4.23;;
16480;SDS011;44634;54.110;12.138;2023-04-24T00:20:20;5.00;;;4.60;;
16480;SDS011;44634;54.110;12.138;2023-04-24T00:22:48;4.37;;;4.07;;
16480;SDS011;44634;54.110;12.138;2023-04-24T00:25:16;5.53;;;4.63;;
16480;SDS011;44634;54.110;12.138;2023-04-24T00:27:44;4.67;;;4.37;;
16480;SDS011;44634;54.110;12.138;2023-04-24T00:30:12;4.83;;;4.53;;
16480;SDS011;44634;54.110;12.138;2023-04-24T00:32:41;5.30;;;4.80;;
16480;SDS011;44634;54.110;12.138;2023-04-24T00:35:09;4.77;;;4.37;;
16480;SDS011;44634;54.110;12.138;2023-04-24T00:37:37;5.00;;;4.50;;
16480;SDS011;44634;54.110;12.138;2023-04-24T00:40:06;5.03;;;4.60;;
16480;SDS011;44634;54.110;12.138;2023-04-24T00:42:34;5.23;;;4.73;;
16480;SDS011;44634;54.110;12.138;2023-04-24T00:45:02;4.80;;;4.50;;
16480;SDS011;44634;54.110;12.138;2023-04-24T00:47:31;5.30;;;4.80;;
16480;SDS011;44634;54.110;12.138;2023-04-24T00:50:02;5.23;;;4.83;;
16480;SDS011;44634;54.110;12.138;2023-04-24T00:52:30;5.97;;;5.10;;
16480;SDS011;44634;54.110;12.138;2023-04-24T00:54:59;5.43;;;4.93;;
16480;SDS011;44634;54.110;12.138;2023-04-24T00:57:27;5.00;;;4.60;;
16480;SDS011;44634;54.110;12.138;2023-04-24T00:59:55;5.10;;;4.70;;
16480;SDS011;44634;54.110;12.138;2023-04-24T01:02:23;4.87;;;4.50;;
16480;SDS011;44634;54.110;12.138;2023-04-24T01:04:52;5.10;;;4.70;;
16480;SDS011;44634;54.110;12.138;2023-04-24T01:07:22;4.77;;;4.37;;
16480;SDS011;44634;54.110;12.138;2023-04-24T01:09:49;5.30;;;4.90;;
16480;SDS011;44634;54.110;12.138;2023-04-24T01:12:18;5.57;;;5.07;;
16480;SDS011;44634;54.110;12.138;2023-04-24T01:14:46;5.40;;;5.00;;
16480;SDS011;44634;54.110;12.138;2023-04-24T01:17:14;5.27;;;4.87;;
16480;SDS011;44634;54.110;12.138;2023-04-24T01:19:42;5.50;;;5.00;;
16480;SDS011;44634;54.110;12.138;2023-04-24T01:22:13;5.40;;;4.90;;
16480;SDS011;44634;54.110;12.138;2023-04-24T01:24:41;5.40;;;4.90;;
16480;SDS011;44634;54.110;12.138;2023-04-24T01:27:09;5.67;;;5.20;;
16480;SDS011;44634;54.110;12.138;2023-04-24T01:29:38;5.80;;;5.20;;
16480;SDS011;44634;54.110;12.138;2023-04-24T01:32:06;5.77;;;5.27;;
16480;SDS011;44634;54.110;12.138;2023-04-24T01:34:34;6.07;;;5.40;;
16480;SDS011;44634;54.110;12.138;2023-04-24T01:37:02;5.57;;;5.17;;
16480;SDS011;44634;54.110;12.138;2023-04-24T01:39:32;5.67;;;5.17;;
16480;SDS011;44634;54.110;12.138;2023-04-24T01:42:00;5.60;;;5.10;;
16480;SDS011;44634;54.110;12.138;2023-04-24T01:44:28;5.37;;;4.90;;
16480;SDS011;44634;54.110;12.138;2023-04-24T01:46:56;5.90;;;5.10;;
16480;SDS011;44634;54.110;12.138;2023-04-24T01:49:24;4.80;;;4.40;;
16480;SDS011;44634;54.110;12.138;2023-04-24T01:51:52;5.07;;;4.57;;
16480;SDS011;44634;54.110;12.138;2023-04-24T01:54:20;6.13;;;5.53;;
16480;SDS011;44634;54.110;12.138;2023-04-24T01:56:49;5.13;;;4.73;;
16480;SDS011;44634;54.110;12.138;2023-04-24T01:59:17;5.50;;;4.73;;
16480;SDS011;44634;54.110;12.138;2023-04-24T02:01:45;5.77;;;5.17;;
16480;SDS011;44634;54.110;12.138;2023-04-24T02:04:13;6.07;;;4.67;;
16480;SDS011;44634;54.110;12.138;2023-04-24T02:06:41;5.27;;;4.80;;
16480;SDS011;44634;54.110;12.138;2023-04-24T02:09:09;5.57;;;5.07;;
16480;SDS011;44634;54.110;12.138;2023-04-24T02:11:37;6.47;;;5.33;;
16480;SDS011;44634;54.110;12.138;2023-04-24T02:14:07;5.80;;;5.13;;
16480;SDS011;44634;54.110;12.138;2023-04-24T02:16:34;5.70;;;5.23;;
16480;SDS011;44634;54.110;12.138;2023-04-24T02:19:02;5.33;;;4.93;;
16480;SDS011;44634;54.110;12.138;2023-04-24T02:21:31;6.43;;;4.77;;
16480;SDS011;44634;54.110;12.138;2023-04-24T02:23:59;5.30;;;4.90;;
16480;SDS011;44634;54.110;12.138;2023-04-24T02:26:27;5.10;;;4.70;;
16480;SDS011;44634;54.110;12.138;2023-04-24T02:28:54;6.13;;;4.77;;
16480;SDS011;44634;54.110;12.138;2023-04-24T02:31:24;5.50;;;5.00;;
16480;SDS011;44634;54.110;12.138;2023-04-24T02:33:51;6.40;;;5.00;;
16480;SDS011;44634;54.110;12.138;2023-04-24T02:36:19;5.80;;;4.90;;
16480;SDS011;44634;54.110;12.138;2023-04-24T02:38:47;5.43;;;5.03;;
16480;SDS011;44634;54.110;12.138;2023-04-24T02:41:15;5.87;;;5.37;;
16480;SDS011;44634;54.110;12.138;2023-04-24T02:43:42;5.70;;;5.23;;
16480;SDS011;44634;54.110;12.138;2023-04-24T02:46:10;5.23;;;4.83;;
16480;SDS011;44634;54.110;12.138;2023-04-24T02:48:39;6.10;;;5.60;;
16480;SDS011;44634;54.110;12.138;2023-04-24T02:51:07;5.70;;;5.20;;
16480;SDS011;44634;54.110;12.138;2023-04-24T02:53:36;5.03;;;4.63;;
16480;SDS011;44634;54.110;12.138;2023-04-24T02:56:03;4.70;;;4.37;;
16480;SDS011;44634;54.110;12.138;2023-04-24T02:58:31;6.20;;;5.67;;
16480;SDS011;44634;54.110;12.138;2023-04-24T03:01:00;5.40;;;5.00;;
16480;SDS011;44634;54.110;12.138;2023-04-24T03:03:27;5.87;;;5.37;;
16480;SDS011;44634;54.110;12.138;2023-04-24T03:05:57;6.30;;;5.80;;
16480;SDS011;44634;54.110;12.138;2023-04-24T03:08:25;6.93;;;5.73;;
16480;SDS011;44634;54.110;12.138;2023-04-24T03:10:53;6.00;;;5.40;;
16480;SDS011;44634;54.110;12.138;2023-04-24T03:13:20;6.23;;;5.70;;
16480;SDS011;44634;54.110;12.138;2023-04-24T03:15:48;7.93;;;5.93;;
16480;SDS011;44634;54.110;12.138;2023-04-24T03:18:16;6.90;;;6.17;;
16480;SDS011;44634;54.110;12.138;2023-04-24T03:20:45;6.60;;;5.70;;
16480;SDS011;44634;54.110;12.138;2023-04-24T03:23:15;6.07;;;5.53;;
16480;SDS011;44634;54.110;12.138;2023-04-24T03:25:42;7.00;;;5.23;;
16480;SDS011;44634;54.110;12.138;2023-04-24T03:28:10;5.80;;;5.30;;
16480;SDS011;44634;54.110;12.138;2023-04-24T03:30:38;6.40;;;5.80;;
16480;SDS011;44634;54.110;12.138;2023-04-24T03:33:06;5.70;;;5.30;;
16480;SDS011;44634;54.110;12.138;2023-04-24T03:35:34;6.43;;;5.83;;
16480;SDS011;44634;54.110;12.138;2023-04-24T03:38:02;6.37;;;5.77;;
16480;SDS011;44634;54.110;12.138;2023-04-24T03:40:32;6.50;;;5.93;;
16480;SDS011;44634;54.110;12.138;2023-04-24T03:43:00;6.90;;;6.30;;
16480;SDS011;44634;54.110;12.138;2023-04-24T03:45:28;7.17;;;6.47;;
16480;SDS011;44634;54.110;12.138;2023-04-24T03:47:56;7.83;;;6.77;;
16480;SDS011;44634;54.110;12.138;2023-04-24T03:50:24;7.50;;;6.80;;
16480;SDS011;44634;54.110;12.138;2023-04-24T03:52:52;6.30;;;5.70;;
16480;SDS011;44634;54.110;12.138;2023-04-24T03:55:20;6.27;;;5.77;;
16480;SDS011;44634;54.110;12.138;2023-04-24T03:57:49;7.00;;;6.40;;
16480;SDS011;44634;54.110;12.138;2023-04-24T04:00:17;6.67;;;6.07;;
16480;SDS011;44634;54.110;12.138;2023-04-24T04:02:45;6.30;;;5.70;;
16480;SDS011;44634;54.110;12.138;2023-04-24T04:05:13;7.40;;;6.60;;
16480;SDS011;44634;54.110;12.138;2023-04-24T04:07:41;7.03;;;6.43;;
16480;SDS011;44634;54.110;12.138;2023-04-24T04:10:09;7.57;;;6.77;;
16480;SDS011;44634;54.110;12.138;2023-04-24T04:12:37;7.87;;;6.77;;
16480;SDS011;44634;54.110;12.138;2023-04-24T04:15:06;8.57;;;7.17;;
16480;SDS011;44634;54.110;12.138;2023-04-24T04:17:34;7.07;;;6.47;;
16480;SDS011;44634;54.110;12.138;2023-04-24T04:20:04;7.73;;;6.73;;
16480;SDS011;44634;54.110;12.138;2023-04-24T04:22:35;7.47;;;6.67;;
16480;SDS011;44634;54.110;12.138;2023-04-24T04:25:03;7.50;;;6.70;;
16480;SDS011;44634;54.110;12.138;2023-04-24T04:27:31;7.47;;;6.70;;
16480;SDS011;44634;54.110;12.138;2023-04-24T04:30:00;7.47;;;6.77;;
16480;SDS011;44634;54.110;12.138;2023-04-24T04:32:32;7.73;;;7.03;;
16480;SDS011;44634;54.110;12.138;2023-04-24T04:35:00;19.23;;;13.67;;
16480;SDS011;44634;54.110;12.138;2023-04-24T04:37:29;8.90;;;8.00;;
16480;SDS011;44634;54.110;12.138;2023-04-24T04:39:57;7.10;;;6.40;;
16480;SDS011;44634;54.110;12.138;2023-04-24T04:42:25;7.10;;;6.13;;
16480;SDS011;44634;54.110;12.138;2023-04-24T04:44:53;6.83;;;6.23;;
16480;SDS011;44634;54.110;12.138;2023-04-24T04:47:22;6.93;;;6.33;;
16480;SDS011;44634;54.110;12.138;2023-04-24T04:49:51;7.17;;;6.40;;
16480;SDS011;44634;54.110;12.138;2023-04-24T04:52:19;6.67;;;6.07;;
16480;SDS011;44634;54.110;12.138;2023-04-24T04:54:51;6.93;;;6.33;;
16480;SDS011;44634;54.110;12.138;2023-04-24T04:57:18;11.17;;;6.20;;
16480;SDS011;44634;54.110;12.138;2023-04-24T04:59:46;7.10;;;6.40;;
16480;SDS011;44634;54.110;12.138;2023-04-24T05:02:14;7.13;;;6.43;;
16480;SDS011;44634;54.110;12.138;2023-04-24T05:04:42;7.23;;;6.63;;
16480;SDS011;44634;54.110;12.138;2023-04-24T05:07:12;6.70;;;6.10;;
16480;SDS011;44634;54.110;12.138;2023-04-24T05:09:40;6.93;;;6.23;;
16480;SDS011;44634;54.110;12.138;2023-04-24T05:12:08;6.87;;;6.20;;
16480;SDS011;44634;54.110;12.138;2023-04-24T05:14:35;6.87;;;6.17;;
16480;SDS011;44634;54.110;12.138;2023-04-24T05:17:03;6.90;;;6.17;;
16480;SDS011;44634;54.110;12.138;2023-04-24T05:19:31;6.73;;;5.90;;
16480;SDS011;44634;54.110;12.138;2023-04-24T05:22:02;7.60;;;6.80;;
16480;SDS011;44634;54.110;12.138;2023-04-24T05:24:34;8.03;;;6.97;;
16480;SDS011;44634;54.110;12.138;2023-04-24T05:27:01;6.73;;;6.03;;
16480;SDS011;44634;54.110;12.138;2023-04-24T05:29:30;6.33;;;5.73;;
16480;SDS011;44634;54.110;12.138;2023-04-24T05:31:59;6.13;;;5.53;;
16480;SDS011;44634;54.110;12.138;2023-04-24T05:34:27;6.60;;;6.00;;
16480;SDS011;44634;54.110;12.138;2023-04-24T05:36:55;6.30;;;5.70;;
16480;SDS011;44634;54.110;12.138;2023-04-24T05:39:23;8.30;;;6.13;;
16480;SDS011;44634;54.110;12.138;2023-04-24T05:41:52;6.07;;;5.47;;
16480;SDS011;44634;54.110;12.138;2023-04-24T05:44:21;6.47;;;5.67;;
16480;SDS011;44634;54.110;12.138;2023-04-24T05:46:48;7.57;;;5.37;;
16480;SDS011;44634;54.110;12.138;2023-04-24T05:49:17;6.73;;;6.00;;
16480;SDS011;44634;54.110;12.138;2023-04-24T05:51:44;6.10;;;5.57;;
16480;SDS011;44634;54.110;12.138;2023-04-24T05:54:12;5.83;;;5.33;;
16480;SDS011;44634;54.110;12.138;2023-04-24T05:56:40;7.63;;;6.10;;
16480;SDS011;44634;54.110;12.138;2023-04-24T05:59:09;6.27;;;5.73;;
16480;SDS011;44634;54.110;12.138;2023-04-24T06:01:37;6.40;;;5.80;;
16480;SDS011;44634;54.110;12.138;2023-04-24T06:04:05;5.80;;;5.40;;
16480;SDS011;44634;54.110;12.138;2023-04-24T06:06:33;5.80;;;5.30;;
16480;SDS011;44634;54.110;12.138;2023-04-24T06:09:02;7.00;;;6.37;;
16480;SDS011;44634;54.110;12.138;2023-04-24T06:11:31;6.23;;;5.57;;
16480;SDS011;44634;54.110;12.138;2023-04-24T06:13:58;5.80;;;5.30;;
16480;SDS011;44634;54.110;12.138;2023-04-24T06:16:27;5.63;;;5.20;;
16480;SDS011;44634;54.110;12.138;2023-04-24T06:18:57;5.50;;;4.70;;
16480;SDS011;44634;54.110;12.138;2023-04-24T06:21:24;5.27;;;4.87;;
16480;SDS011;44634;54.110;12.138;2023-04-24T06:23:52;4.90;;;4.60;;
16480;SDS011;44634;54.110;12.138;2023-04-24T06:26:22;4.23;;;3.83;;
16480;SDS011;44634;54.110;12.138;2023-04-24T06:28:51;4.23;;;3.93;;
16480;SDS011;44634;54.110;12.138;2023-04-24T06:31:19;3.80;;;3.60;;
16480;SDS011;44634;54.110;12.138;2023-04-24T06:33:49;4.03;;;3.70;;
16480;SDS011;44634;54.110;12.138;2023-04-24T06:36:17;4.17;;;3.80;;
16480;SDS011;44634;54.110;12.138;2023-04-24T06:38:44;3.60;;;3.30;;
16480;SDS011;44634;54.110;12.138;2023-04-24T06:41:12;3.70;;;3.47;;
16480;SDS011;44634;54.110;12.138;2023-04-24T06:43:40;3.57;;;3.30;;
16480;SDS011;44634;54.110;12.138;2023-04-24T06:46:08;3.40;;;3.10;;
16480;SDS011;44634;54.110;12.138;2023-04-24T06:48:36;3.10;;;2.80;;
16480;SDS011;44634;54.110;12.138;2023-04-24T06:51:05;2.83;;;2.73;;
16480;SDS011;44634;54.110;12.138;2023-04-24T06:53:33;3.00;;;2.80;;
16480;SDS011;44634;54.110;12.138;2023-04-24T06:56:01;2.73;;;2.53;;
16480;SDS011;44634;54.110;12.138;2023-04-24T06:58:30;2.07;;;1.97;;
16480;SDS011;44634;54.110;12.138;2023-04-24T07:00:58;2.80;;;2.63;;
16480;SDS011;44634;54.110;12.138;2023-04-24T07:03:25;2.60;;;2.40;;
16480;SDS011;44634;54.110;12.138;2023-04-24T07:05:54;2.20;;;2.10;;
16480;SDS011;44634;54.110;12.138;2023-04-24T07:08:23;2.50;;;2.40;;
16480;SDS011;44634;54.110;12.138;2023-04-24T07:10:51;2.20;;;2.10;;
16480;SDS011;44634;54.110;12.138;2023-04-24T07:13:19;3.13;;;3.03;;
16480;SDS011;44634;54.110;12.138;2023-04-24T07:15:47;2.50;;;2.40;;
16480;SDS011;44634;54.110;12.138;2023-04-24T07:18:17;2.97;;;2.70;;
16480;SDS011;44634;54.110;12.138;2023-04-24T07:20:44;2.67;;;2.47;;
16480;SDS011;44634;54.110;12.138;2023-04-24T07:23:12;2.30;;;2.10;;
16480;SDS011;44634;54.110;12.138;2023-04-24T07:25:42;2.13;;;2.03;;
16480;SDS011;44634;54.110;12.138;2023-04-24T07:28:10;2.93;;;2.20;;
16480;SDS011;44634;54.110;12.138;2023-04-24T07:30:38;2.10;;;2.10;;
16480;SDS011;44634;54.110;12.138;2023-04-24T07:33:05;2.73;;;2.10;;
16480;SDS011;44634;54.110;12.138;2023-04-24T07:35:33;2.20;;;2.10;;
16480;SDS011;44634;54.110;12.138;2023-04-24T07:38:01;2.70;;;2.17;;
16480;SDS011;44634;54.110;12.138;2023-04-24T07:40:29;1.97;;;1.87;;
16480;SDS011;44634;54.110;12.138;2023-04-24T07:42:58;2.07;;;1.87;;
16480;SDS011;44634;54.110;12.138;2023-04-24T07:45:26;1.67;;;1.67;;
16480;SDS011;44634;54.110;12.138;2023-04-24T07:47:54;1.70;;;1.70;;
16480;SDS011;44634;54.110;12.138;2023-04-24T07:50:22;1.77;;;1.77;;
16480;SDS011;44634;54.110;12.138;2023-04-24T07:52:50;2.07;;;1.97;;
16480;SDS011;44634;54.110;12.138;2023-04-24T07:55:17;1.80;;;1.70;;
16480;SDS011;44634;54.110;12.138;2023-04-24T07:57:49;1.60;;;1.60;;
16480;SDS011;44634;54.110;12.138;2023-04-24T08:00:18;1.60;;;1.50;;
16480;SDS011;44634;54.110;12.138;2023-04-24T08:02:47;1.50;;;1.50;;
16480;SDS011;44634;54.110;12.138;2023-04-24T08:05:15;1.53;;;1.43;;
16480;SDS011;44634;54.110;12.138;2023-04-24T08:07:43;1.70;;;1.70;;
16480;SDS011;44634;54.110;12.138;2023-04-24T08:10:12;1.40;;;1.40;;
16480;SDS011;44634;54.110;12.138;2023-04-24T08:12:40;1.80;;;1.80;;
16480;SDS011;44634;54.110;12.138;2023-04-24T08:15:08;1.60;;;1.60;;
16480;SDS011;44634;54.110;12.138;2023-04-24T08:17:38;1.53;;;1.53;;
16480;SDS011;44634;54.110;12.138;2023-04-24T08:20:08;2.40;;;1.67;;
16480;SDS011;44634;54.110;12.138;2023-04-24T08:22:40;1.60;;;1.60;;
16480;SDS011;44634;54.110;12.138;2023-04-24T08:25:08;2.20;;;1.50;;
16480;SDS011;44634;54.110;12.138;2023-04-24T08:27:36;1.30;;;1.30;;
16480;SDS011;44634;54.110;12.138;2023-04-24T08:30:05;1.50;;;1.50;;
16480;SDS011;44634;54.110;12.138;2023-04-24T08:32:35;1.60;;;1.60;;
16480;SDS011;44634;54.110;12.138;2023-04-24T08:35:05;1.27;;;1.27;;
16480;SDS011;44634;54.110;12.138;2023-04-24T08:37:35;1.50;;;1.40;;
16480;SDS011;44634;54.110;12.138;2023-04-24T08:40:05;2.93;;;1.33;;
16480;SDS011;44634;54.110;12.138;2023-04-24T08:42:37;2.83;;;1.40;;
16480;SDS011;44634;54.110;12.138;2023-04-24T08:45:07;1.63;;;1.53;;
16480;SDS011;44634;54.110;12.138;2023-04-24T08:47:35;1.10;;;1.10;;
16480;SDS011;44634;54.110;12.138;2023-04-24T08:50:07;1.23;;;1.23;;
16480;SDS011;44634;54.110;12.138;2023-04-24T08:52:36;1.33;;;1.23;;
16480;SDS011;44634;54.110;12.138;2023-04-24T08:55:04;1.33;;;1.33;;
16480;SDS011;44634;54.110;12.138;2023-04-24T08:57:33;1.50;;;1.40;;
16480;SDS011;44634;54.110;12.138;2023-04-24T09:00:02;1.33;;;1.33;;
16480;SDS011;44634;54.110;12.138;2023-04-24T09:02:30;1.60;;;1.50;;
16480;SDS011;44634;54.110;12.138;2023-04-24T09:05:02;1.80;;;1.20;;
16480;SDS011;44634;54.110;12.138;2023-04-24T09:07:31;1.30;;;1.30;;
16480;SDS011;44634;54.110;12.138;2023-04-24T09:10:03;1.20;;;1.10;;
16480;SDS011;44634;54.110;12.138;2023-04-24T09:12:31;1.27;;;1.27;;
16480;SDS011;44634;54.110;12.138;2023-04-24T09:14:59;1.33;;;1.30;;
16480;SDS011;44634;54.110;12.138;2023-04-24T09:17:27;1.37;;;1.30;;
16480;SDS011;44634;54.110;12.138;2023-04-24T09:19:55;1.30;;;1.30;;
16480;SDS011;44634;54.110;12.138;2023-04-24T09:22:24;1.40;;;1.40;;
16480;SDS011;44634;54.110;12.138;2023-04-24T09:24:59;1.20;;;1.20;;
16480;SDS011;44634;54.110;12.138;2023-04-24T09:27:29;1.10;;;1.10;;
16480;SDS011;44634;54.110;12.138;2023-04-24T09:29:58;1.50;;;1.50;;
16480;SDS011;44634;54.110;12.138;2023-04-24T09:32:26;1.20;;;1.20;;
16480;SDS011;44634;54.110;12.138;2023-04-24T09:35:06;2.00;;;1.50;;
16480;SDS011;44634;54.110;12.138;2023-04-24T09:37:37;1.10;;;1.10;;
16480;SDS011;44634;54.110;12.138;2023-04-24T09:40:09;1.10;;;1.10;;
16480;SDS011;44634;54.110;12.138;2023-04-24T09:42:38;1.47;;;1.40;;
16480;SDS011;44634;54.110;12.138;2023-04-24T09:45:10;1.50;;;1.50;;
16480;SDS011;44634;54.110;12.138;2023-04-24T09:47:41;1.63;;;1.50;;
16480;SDS011;44634;54.110;12.138;2023-04-24T09:50:11;1.47;;;1.43;;
16480;SDS011;44634;54.110;12.138;2023-04-24T09:52:42;1.13;;;1.13;;
16480;SDS011;44634;54.110;12.138;2023-04-24T09:55:11;1.40;;;1.40;;
16480;SDS011;44634;54.110;12.138;2023-04-24T09:57:50;1.40;;;1.40;;
16480;SDS011;44634;54.110;12.138;2023-04-24T10:00:21;1.20;;;1.20;;
16480;SDS011;44634;54.110;12.138;2023-04-24T10:02:50;1.33;;;1.33;;
16480;SDS011;44634;54.110;12.138;2023-04-24T10:05:19;1.20;;;1.20;;
16480;SDS011;44634;54.110;12.138;2023-04-24T10:07:54;1.50;;;1.50;;
16480;SDS011;44634;54.110;12.138;2023-04-24T10:10:24;1.50;;;1.40;;
16480;SDS011;44634;54.110;12.138;2023-04-24T10:12:52;1.40;;;1.40;;
16480;SDS011;44634;54.110;12.138;2023-04-24T10:15:20;1.30;;;1.30;;
16480;SDS011;44634;54.110;12.138;2023-04-24T10:17:48;1.20;;;1.20;;
16480;SDS011;44634;54.110;12.138;2023-04-24T10:20:19;1.40;;;1.40;;
16480;SDS011;44634;54.110;12.138;2023-04-24T10:22:48;1.30;;;1.30;;
16480;SDS011;44634;54.110;12.138;2023-04-24T10:25:20;1.20;;;1.20;;
16480;SDS011;44634;54.110;12.138;2023-04-24T10:27:49;1.30;;;1.30;;
16480;SDS011;44634;54.110;12.138;2023-04-24T10:30:19;1.20;;;1.20;;
16480;SDS011;44634;54.110;12.138;2023-04-24T10:32:47;1.40;;;1.40;;
16480;SDS011;44634;54.110;12.138;2023-04-24T10:35:15;1.17;;;1.10;;
16480;SDS011;44634;54.110;12.138;2023-04-24T10:37:46;1.50;;;1.50;;
16480;SDS011;44634;54.110;12.138;2023-04-24T10:40:18;1.60;;;1.40;;
16480;SDS011;44634;54.110;12.138;2023-04-24T10:42:54;1.20;;;1.20;;
16480;SDS011;44634;54.110;12.138;2023-04-24T10:45:24;1.30;;;1.20;;
16480;SDS011;44634;54.110;12.138;2023-04-24T10:47:53;1.10;;;1.10;;
16480;SDS011;44634;54.110;12.138;2023-04-24T10:50:25;1.10;;;1.10;;
16480;SDS011;44634;54.110;12.138;2023-04-24T10:52:55;1.20;;;1.20;;
16480;SDS011;44634;54.110;12.138;2023-04-24T10:55:40;1.30;;;1.30;;
16480;SDS011;44634;54.110;12.138;2023-04-24T10:58:10;1.20;;;1.20;;
16480;SDS011;44634;54.110;12.138;2023-04-24T11:00:38;1.13;;;1.13;;
16480;SDS011;44634;54.110;12.138;2023-04-24T11:03:22;1.33;;;1.33;;
16480;SDS011;44634;54.110;12.138;2023-04-24T11:05:58;1.13;;;1.13;;
16480;SDS011;44634;54.110;12.138;2023-04-24T11:08:28;1.27;;;1.27;;
16480;SDS011;44634;54.110;12.138;2023-04-24T11:11:03;1.30;;;1.30;;
16480;SDS011;44634;54.110;12.138;2023-04-24T11:16:33;1.20;;;1.20;;
16480;SDS011;44634;54.110;12.138;2023-04-24T11:19:05;1.63;;;1.30;;
16480;SDS011;44634;54.110;12.138;2023-04-24T11:21:41;1.60;;;1.13;;
16480;SDS011;44634;54.110;12.138;2023-04-24T11:24:26;1.10;;;1.10;;
16480;SDS011;44634;54.110;12.138;2023-04-24T11:26:56;1.40;;;1.40;;
16480;SDS011;44634;54.110;12.138;2023-04-24T11:29:38;1.17;;;1.17;;
16480;SDS011;44634;54.110;12.138;2023-04-24T11:32:17;1.30;;;1.30;;
16480;SDS011;44634;54.110;12.138;2023-04-24T11:34:53;1.30;;;1.30;;
16480;SDS011;44634;54.110;12.138;2023-04-24T11:37:22;1.67;;;1.10;;
16480;SDS011;44634;54.110;12.138;2023-04-24T11:39:51;1.30;;;1.30;;
16480;SDS011;44634;54.110;12.138;2023-04-24T11:42:21;1.23;;;1.23;;
16480;SDS011;44634;54.110;12.138;2023-04-24T11:44:51;1.20;;;1.20;;
16480;SDS011;44634;54.110;12.138;2023-04-24T11:47:26;1.17;;;1.17;;
16480;SDS011;44634;54.110;12.138;2023-04-24T11:49:55;1.00;;;1.00;;
16480;SDS011;44634;54.110;12.138;2023-04-24T11:52:23;1.00;;;1.00;;
16480;SDS011;44634;54.110;12.138;2023-04-24T11:54:51;1.10;;;1.00;;
16480;SDS011;44634;54.110;12.138;2023-04-24T11:57:20;1.10;;;1.10;;
16480;SDS011;44634;54.110;12.138;2023-04-24T11:59:49;1.77;;;1.20;;
16480;SDS011;44634;54.110;12.138;2023-04-24T12:02:20;1.10;;;1.10;;
16480;SDS011;44634;54.110;12.138;2023-04-24T12:04:49;1.53;;;1.00;;
16480;SDS011;44634;54.110;12.138;2023-04-24T12:07:18;1.23;;;1.23;;
16480;SDS011;44634;54.110;12.138;2023-04-24T12:09:46;1.20;;;1.20;;
16480;SDS011;44634;54.110;12.138;2023-04-24T12:12:18;1.10;;;1.10;;
16480;SDS011;44634;54.110;12.138;2023-04-24T12:14:52;1.20;;;1.20;;
16480;SDS011;44634;54.110;12.138;2023-04-24T12:17:24;1.33;;;1.10;;
16480;SDS011;44634;54.110;12.138;2023-04-24T12:19:57;1.00;;;1.00;;
16480;SDS011;44634;54.110;12.138;2023-04-24T12:22:26;1.17;;;1.07;;
16480;SDS011;44634;54.110;12.138;2023-04-24T12:25:00;0.90;;;0.90;;
16480;SDS011;44634;54.110;12.138;2023-04-24T12:27:30;0.93;;;0.93;;
16480;SDS011;44634;54.110;12.138;2023-04-24T12:30:01;1.10;;;1.10;;
16480;SDS011;44634;54.110;12.138;2023-04-24T12:32:31;1.10;;;1.10;;
16480;SDS011;44634;54.110;12.138;2023-04-24T12:34:59;1.30;;;1.30;;
16480;SDS011;44634;54.110;12.138;2023-04-24T12:37:32;2.20;;;1.00;;
16480;SDS011;44634;54.110;12.138;2023-04-24T12:40:03;1.10;;;1.10;;
16480;SDS011;44634;54.110;12.138;2023-04-24T12:42:33;1.30;;;1.20;;
16480;SDS011;44634;54.110;12.138;2023-04-24T12:45:04;1.27;;;1.27;;
16480;SDS011;44634;54.110;12.138;2023-04-24T12:47:33;1.20;;;1.20;;
16480;SDS011;44634;54.110;12.138;2023-04-24T12:50:02;1.70;;;1.50;;
16480;SDS011;44634;54.110;12.138;2023-04-24T12:52:30;1.20;;;1.20;;
16480;SDS011;44634;54.110;12.138;2023-04-24T12:54:59;1.23;;;1.23;;
16480;SDS011;44634;54.110;12.138;2023-04-24T12:57:28;1.47;;;1.30;;
16480;SDS011;44634;54.110;12.138;2023-04-24T12:59:57;1.50;;;1.50;;
16480;SDS011;44634;54.110;12.138;2023-04-24T13:02:28;2.40;;;2.20;;
16480;SDS011;44634;54.110;12.138;2023-04-24T13:04:57;1.40;;;1.30;;
16480;SDS011;44634;54.110;12.138;2023-04-24T13:07:26;1.27;;;1.20;;
16480;SDS011;44634;54.110;12.138;2023-04-24T13:09:55;1.20;;;1.20;;
16480;SDS011;44634;54.110;12.138;2023-04-24T13:12:24;1.17;;;1.17;;
16480;SDS011;44634;54.110;12.138;2023-04-24T13:14:52;1.10;;;1.10;;
16480;SDS011;44634;54.110;12.138;2023-04-24T13:17:21;1.10;;;1.10;;
16480;SDS011;44634;54.110;12.138;2023-04-24T13:19:51;1.40;;;1.40;;
16480;SDS011;44634;54.110;12.138;2023-04-24T13:22:22;1.40;;;1.40;;
16480;SDS011;44634;54.110;12.138;2023-04-24T13:24:50;1.30;;;1.30;;
16480;SDS011;44634;54.110;12.138;2023-04-24T13:27:18;1.50;;;1.50;;
16480;SDS011;44634;54.110;12.138;2023-04-24T13:29:46;1.50;;;1.27;;
16480;SDS011;44634;54.110;12.138;2023-04-24T13:32:13;1.27;;;1.27;;
16480;SDS011;44634;54.110;12.138;2023-04-24T13:34:41;2.37;;;2.23;;
16480;SDS011;44634;54.110;12.138;2023-04-24T13:37:11;1.40;;;1.40;;
16480;SDS011;44634;54.110;12.138;2023-04-24T13:39:40;2.43;;;1.80;;
16480;SDS011;44634;54.110;12.138;2023-04-24T13:42:08;1.30;;;1.30;;
16480;SDS011;44634;54.110;12.138;2023-04-24T13:44:37;1.57;;;1.47;;
16480;SDS011;44634;54.110;12.138;2023-04-24T13:47:04;1.30;;;1.30;;
16480;SDS011;44634;54.110;12.138;2023-04-24T13:49:32;1.40;;;1.33;;
16480;SDS011;44634;54.110;12.138;2023-04-24T13:52:00;1.50;;;1.50;;
16480;SDS011;44634;54.110;12.138;2023-04-24T13:54:30;1.50;;;1.50;;
16480;SDS011;44634;54.110;12.138;2023-04-24T13:56:59;2.43;;;2.03;;
16480;SDS011;44634;54.110;12.138;2023-04-24T13:59:26;1.90;;;1.87;;
16480;SDS011;44634;54.110;12.138;2023-04-24T14:01:54;1.70;;;1.70;;
16480;SDS011;44634;54.110;12.138;2023-04-24T14:04:22;1.97;;;1.87;;
16480;SDS011;44634;54.110;12.138;2023-04-24T14:06:50;1.70;;;1.70;;
16480;SDS011;44634;54.110;12.138;2023-04-24T14:09:18;2.97;;;2.10;;
16480;SDS011;44634;54.110;12.138;2023-04-24T14:11:47;2.30;;;2.20;;
16480;SDS011;44634;54.110;12.138;2023-04-24T14:14:15;2.13;;;2.13;;
16480;SDS011;44634;54.110;12.138;2023-04-24T14:16:43;2.63;;;2.50;;
16480;SDS011;44634;54.110;12.138;2023-04-24T14:19:11;2.97;;;2.77;;
16480;SDS011;44634;54.110;12.138;2023-04-24T14:21:39;2.47;;;2.37;;
16480;SDS011;44634;54.110;12.138;2023-04-24T14:24:07;2.00;;;2.00;;
16480;SDS011;44634;54.110;12.138;2023-04-24T14:26:35;2.53;;;2.40;;
16480;SDS011;44634;54.110;12.138;2023-04-24T14:29:04;2.40;;;2.20;;
16480;SDS011;44634;54.110;12.138;2023-04-24T14:31:40;2.90;;;2.80;;
16480;SDS011;44634;54.110;12.138;2023-04-24T14:34:08;2.40;;;2.30;;
16480;SDS011;44634;54.110;12.138;2023-04-24T14:36:36;2.70;;;2.60;;
16480;SDS011;44634;54.110;12.138;2023-04-24T14:39:04;2.40;;;2.23;;
16480;SDS011;44634;54.110;12.138;2023-04-24T14:41:33;3.30;;;3.00;;
16480;SDS011;44634;54.110;12.138;2023-04-24T14:44:02;3.57;;;3.30;;
16480;SDS011;44634;54.110;12.138;2023-04-24T14:46:31;3.40;;;3.10;;